Time;durP1;ratioP1;P1;durP2;ratioP2;P2;SDS_P1;SDS_P2;PMS_P1;PMS_P2;Temp;Humidity;BMP_temperature;BMP_pressure;BME280_temperature;BME280_humidity;BME280_pressure;Samples;Min_cycle;Max_cycle;Signal;HPM_P1;HPM_P2
2022/01/27 00:02:11;;;;;;;31.30;18.23;;;;;;;0.24;78.96;98561.06;6279161;28;20234;-66
2022/01/27 00:05:06;;;;;;;32.77;17.47;;;;;;;0.21;78.69;98584.50;6265864;28;20235;-66
2022/01/27 00:08:15;;;;;;;30.57;16.67;;;;;;;0.23;78.75;98577.53;6278069;28;20317;-67
2022/01/27 00:11:17;;;;;;;29.67;16.63;;;;;;;0.22;79.18;98593.13;6261250;28;20226;-69
2022/01/27 00:14:21;;;;;;;30.53;17.03;;;;;;;0.20;78.79;98584.56;6277556;28;20608;-67
2022/01/27 00:17:29;;;;;;;29.53;16.30;;;;;;;0.30;77.89;98568.69;6260921;28;20226;-67
2022/01/27 00:20:31;;;;;;;29.20;16.20;;;;;;;0.30;78.15;98555.72;6277384;28;20253;-69
2022/01/27 00:23:34;;;;;;;31.97;18.70;;;;;;;0.28;78.91;98556.66;6246422;28;20673;-66
2022/01/27 00:26:36;;;;;;;29.97;17.20;;;;;;;0.32;78.48;98553.06;6278712;28;20229;-67
2022/01/27 00:29:38;;;;;;;31.90;17.63;;;;;;;0.32;78.03;98551.34;6261846;28;20234;-67
2022/01/27 00:32:40;;;;;;;29.47;16.90;;;;;;;0.33;78.15;98559.97;6278994;28;20238;-67
2022/01/27 00:35:42;;;;;;;33.23;17.60;;;;;;;0.34;78.59;98562.53;6278605;28;20230;-67
2022/01/27 00:38:44;;;;;;;33.57;17.30;;;;;;;0.35;78.42;98576.38;6278155;28;20311;-67
2022/01/27 00:41:46;;;;;;;35.30;17.40;;;;;;;0.39;77.78;98595.34;6260952;28;20590;-67
2022/01/27 00:44:48;;;;;;;32.67;17.27;;;;;;;0.43;77.60;98602.13;6279021;28;20227;-66
2022/01/27 00:47:51;;;;;;;31.90;16.60;;;;;;;0.42;77.89;98597.81;6278038;28;20651;-66
2022/01/27 00:51:00;;;;;;;32.47;18.43;;;;;;;0.40;78.51;98605.66;6278319;28;20641;-67
2022/01/27 00:54:27;;;;;;;34.30;17.87;;;;;;;0.41;77.90;98598.72;6275137;28;20242;-66
2022/01/27 00:57:42;;;;;;;33.33;17.83;;;;;;;0.36;78.49;98584.13;6257690;28;20234;-67
2022/01/27 01:00:53;;;;;;;40.03;19.63;;;;;;;0.36;78.85;98586.72;6278811;28;20656;-69
2022/01/27 01:03:59;;;;;;;40.83;20.60;;;;;;;0.38;78.92;98597.06;6249234;28;20236;-67
2022/01/27 01:07:01;;;;;;;37.57;20.23;;;;;;;0.38;79.03;98604.00;6253923;28;20320;-67
2022/01/27 01:16:46;;;;;;;42.13;21.97;;;;;;;0.31;79.19;98593.75;6254482;28;20227;-67
2022/01/27 01:35:49;;;;;;;41.23;21.83;;;;;;;0.27;79.67;98573.13;6251090;28;20268;-67
2022/01/27 01:38:51;;;;;;;40.80;21.90;;;;;;;0.23;80.27;98563.69;6252601;28;20231;-67
2022/01/27 01:41:54;;;;;;;41.57;20.83;;;;;;;0.24;79.87;98570.59;6252772;28;20243;-66
2022/01/27 01:45:04;;;;;;;41.93;22.90;;;;;;;0.22;80.14;98569.78;6252315;28;20227;-67
2022/01/27 01:48:06;;;;;;;47.07;22.63;;;;;;;0.24;79.71;98549.81;6266118;28;20227;-67
2022/01/27 01:51:10;;;;;;;41.30;21.23;;;;;;;0.23;80.10;98545.53;6252352;28;20726;-67
2022/01/27 01:54:13;;;;;;;42.00;22.47;;;;;;;0.22;79.80;98538.63;6252638;28;20694;-68
2022/01/27 01:57:15;;;;;;;44.97;23.03;;;;;;;0.20;80.04;98536.06;6252704;28;20222;-66
2022/01/27 02:00:18;;;;;;;40.50;20.87;;;;;;;0.23;79.58;98545.53;6252097;28;20211;-67
2022/01/27 02:03:20;;;;;;;39.03;20.67;;;;;;;0.23;79.56;98543.78;6234159;28;20241;-67
2022/01/27 02:06:30;;;;;;;33.50;19.73;;;;;;;0.20;79.46;98561.19;6275873;28;20222;-67
2022/01/27 02:10:00;;;;;;;43.50;20.73;;;;;;;0.21;79.69;98557.69;6258543;28;20600;-67
2022/01/27 02:19:56;;;;;;;38.67;18.17;;;;;;;0.20;79.48;98541.25;6276119;28;20694;-66
2022/01/27 02:22:58;;;;;;;37.93;19.57;;;;;;;0.20;79.98;98522.25;6276050;28;20618;-67
2022/01/27 02:26:00;;;;;;;32.10;17.70;;;;;;;0.21;79.63;98514.41;6276985;28;20719;-67
2022/01/27 02:29:02;;;;;;;34.30;18.73;;;;;;;0.21;79.46;98527.38;6275618;28;20307;-67
2022/01/27 02:32:04;;;;;;;36.40;18.57;;;;;;;0.19;79.28;98518.81;6276132;28;20471;-67
2022/01/27 02:35:07;;;;;;;39.97;19.70;;;;;;;0.21;79.30;98519.59;6264664;28;20602;-67
2022/01/27 02:38:09;;;;;;;34.00;19.13;;;;;;;0.22;78.99;98494.50;6276344;28;20230;-68
2022/01/27 02:41:11;;;;;;;34.30;18.23;;;;;;;0.21;79.26;98506.63;6257954;28;20713;-67
2022/01/27 02:44:54;;;;;;;37.37;19.47;;;;;;;0.21;79.23;98509.22;6281441;28;20604;-67
2022/01/27 02:47:56;;;;;;;37.13;20.57;;;;;;;0.22;78.83;98499.69;6183440;28;20237;-67
2022/01/27 02:50:58;;;;;;;34.07;18.67;;;;;;;0.22;78.79;98502.28;6280526;28;20241;-67
2022/01/27 02:54:00;;;;;;;37.03;19.27;;;;;;;0.24;78.90;98500.50;6280884;28;20603;-67
2022/01/27 02:57:03;;;;;;;37.90;18.77;;;;;;;0.22;79.60;98512.66;6280810;28;20226;-67
2022/01/27 03:00:06;;;;;;;41.53;19.50;;;;;;;0.21;79.09;98509.22;6280060;28;20299;-67
2022/01/27 03:03:09;;;;;;;37.83;20.23;;;;;;;0.22;78.93;98512.66;6270359;28;20282;-67
2022/01/27 03:06:11;;;;;;;36.27;20.03;;;;;;;0.25;78.91;98518.66;6280360;28;20618;-67
2022/01/27 03:09:14;;;;;;;39.50;20.40;;;;;;;0.24;78.60;98508.31;6280239;28;20222;-67
2022/01/27 03:12:18;;;;;;;41.00;19.87;;;;;;;0.20;78.93;98498.91;6280135;28;20253;-67
2022/01/27 03:15:20;;;;;;;33.90;19.77;;;;;;;0.19;78.89;98497.19;6281882;28;20599;-67
2022/01/27 03:18:22;;;;;;;33.43;20.23;;;;;;;0.17;79.03;98499.81;6279027;28;20287;-67
2022/01/27 03:21:24;;;;;;;39.40;20.87;;;;;;;0.16;79.37;98498.13;6280315;28;20667;-67
2022/01/27 03:24:27;;;;;;;36.23;20.63;;;;;;;0.16;79.46;98502.47;6261013;28;20226;-67
2022/01/27 03:27:29;;;;;;;36.77;20.97;;;;;;;0.15;79.30;98499.00;6280109;28;20588;-67
2022/01/27 03:30:32;;;;;;;34.30;19.57;;;;;;;0.14;79.49;98499.91;6279680;28;20624;-67
2022/01/27 03:33:36;;;;;;;38.57;21.07;;;;;;;0.12;79.32;98503.41;6263391;28;20649;-67
2022/01/27 03:36:38;;;;;;;41.17;20.40;;;;;;;0.14;79.46;98504.22;6282072;28;20238;-67
2022/01/27 03:39:42;;;;;;;39.63;21.10;;;;;;;0.14;79.53;98509.44;6279803;28;20219;-67
2022/01/27 03:42:50;;;;;;;40.37;20.67;;;;;;;0.14;78.94;98512.88;6261941;28;20601;-67
2022/01/27 03:45:52;;;;;;;36.43;21.17;;;;;;;0.13;78.59;98492.16;6280177;28;20235;-68
2022/01/27 03:48:55;;;;;;;39.80;20.30;;;;;;;0.11;79.02;98499.97;6279834;28;20311;-68
2022/01/27 03:52:00;;;;;;;36.97;20.03;;;;;;;0.11;78.50;98493.91;6279563;28;20227;-67
2022/01/27 03:55:02;;;;;;;36.93;20.13;;;;;;;0.14;78.83;98501.63;6279479;28;20218;-67
2022/01/27 03:58:04;;;;;;;31.97;19.57;;;;;;;0.12;78.83;98506.00;6278376;28;20233;-67
2022/01/27 04:01:06;;;;;;;39.03;19.03;;;;;;;0.14;78.63;98505.09;6279095;28;20227;-67
2022/01/27 04:04:08;;;;;;;36.57;19.77;;;;;;;0.15;78.17;98505.94;6279195;28;20703;-67
2022/01/27 04:07:10;;;;;;;43.87;22.27;;;;;;;0.19;78.14;98517.97;6260661;28;20234;-67
2022/01/27 04:10:12;;;;;;;37.90;20.50;;;;;;;0.15;78.42;98522.38;6278031;28;20222;-67
2022/01/27 04:13:15;;;;;;;35.33;21.17;;;;;;;0.12;78.88;98514.66;6279882;28;20218;-67
2022/01/27 04:16:17;;;;;;;36.60;20.60;;;;;;;0.09;78.34;98511.31;6279145;28;20226;-67
2022/01/27 04:19:19;;;;;;;38.53;21.77;;;;;;;0.07;78.47;98513.94;6279677;28;20229;-67
2022/01/27 04:22:24;;;;;;;35.37;21.17;;;;;;;0.08;78.63;98500.06;6278010;28;20264;-67
2022/01/27 04:25:26;;;;;;;37.63;21.43;;;;;;;0.08;78.31;98500.06;6254616;28;20230;-67
2022/01/27 04:28:31;;;;;;;37.23;20.50;;;;;;;0.10;78.89;98511.22;6276406;28;20226;-67
2022/01/27 04:31:34;;;;;;;34.83;20.50;;;;;;;0.07;78.69;98513.06;6274271;28;20234;-67
2022/01/27 04:34:39;;;;;;;36.90;20.13;;;;;;;0.10;78.02;98494.84;6278375;28;20226;-67
2022/01/27 04:37:52;;;;;;;36.90;20.27;;;;;;;0.09;78.15;98504.38;6278285;28;20648;-67
2022/01/27 04:41:04;;;;;;;34.23;19.83;;;;;;;0.07;77.97;98507.88;6260386;28;20242;-69
2022/01/27 04:44:54;;;;;;;36.27;21.17;;;;;;;0.04;78.34;98497.56;6261688;28;20230;-67
2022/01/27 04:47:38;;;;;;;37.07;20.70;;;;;;;0.02;78.22;98486.38;6272698;28;20488;-67
2022/01/27 04:50:40;;;;;;;35.43;19.67;;;;;;;0.01;78.58;98488.13;6278293;28;20236;-72
2022/01/27 04:53:49;;;;;;;32.33;18.47;;;;;;;-0.05;78.34;98483.94;6272850;28;20241;-67
2022/01/27 04:56:52;;;;;;;33.53;19.47;;;;;;;-0.16;78.47;98487.69;6278149;28;20241;-67
2022/01/27 04:59:53;;;;;;;37.03;20.80;;;;;;;-0.19;79.20;98490.34;6278906;28;20234;-67
2022/01/27 05:02:58;;;;;;;41.07;20.90;;;;;;;-0.19;79.59;98487.75;6276767;28;20233;-67
2022/01/27 05:06:01;;;;;;;46.10;22.90;;;;;;;-0.10;79.15;98487.56;6276147;28;20242;-68
2022/01/27 05:09:03;;;;;;;40.83;22.10;;;;;;;-0.07;78.96;98490.06;6277316;28;20218;-67
2022/01/27 05:12:13;;;;;;;39.33;22.50;;;;;;;-0.08;79.25;98494.38;6276537;28;20210;-68
2022/01/27 05:15:15;;;;;;;42.80;22.27;;;;;;;-0.09;78.91;98486.63;6278081;28;20210;-67
2022/01/27 05:18:17;;;;;;;41.93;22.17;;;;;;;-0.07;78.79;98493.50;6277293;28;20305;-67
2022/01/27 05:21:19;;;;;;;42.83;23.30;;;;;;;-0.09;79.06;98473.66;6277212;28;20238;-67
2022/01/27 05:24:21;;;;;;;34.77;20.53;;;;;;;-0.13;79.05;98478.09;6260485;28;20692;-68
2022/01/27 05:27:24;;;;;;;38.63;20.47;;;;;;;-0.18;79.28;98482.53;6277359;28;20223;-67
2022/01/27 05:30:26;;;;;;;40.20;21.10;;;;;;;-0.21;79.47;98468.81;6277265;28;20222;-66
2022/01/27 05:33:28;;;;;;;42.03;22.10;;;;;;;-0.24;79.59;98471.47;6275762;28;20337;-67
2022/01/27 05:36:30;;;;;;;41.03;21.13;;;;;;;-0.23;79.32;98471.44;6277352;28;20237;-67
2022/01/27 05:39:32;;;;;;;40.43;20.80;;;;;;;-0.26;79.67;98468.06;6277185;28;20313;-67
2022/01/27 05:42:34;;;;;;;38.60;20.93;;;;;;;-0.31;79.62;98467.34;6276949;28;20226;-67
2022/01/27 05:45:37;;;;;;;37.43;20.30;;;;;;;-0.38;79.81;98461.41;6277066;28;20571;-66
2022/01/27 05:48:39;;;;;;;35.10;19.60;;;;;;;-0.47;79.63;98457.31;6276877;28;20635;-69
2022/01/27 05:51:42;;;;;;;36.40;21.27;;;;;;;-0.53;80.14;98470.44;6275753;28;20714;-67
2022/01/27 05:54:45;;;;;;;38.10;21.40;;;;;;;-0.43;79.66;98477.09;6258585;28;20256;-66
2022/01/27 05:57:46;;;;;;;41.47;21.50;;;;;;;-0.45;79.75;98475.44;6276709;28;20222;-67
2022/01/27 06:00:48;;;;;;;40.37;22.47;;;;;;;-0.42;79.25;98480.56;6276685;28;20642;-67
2022/01/27 06:03:50;;;;;;;37.00;20.10;;;;;;;-0.47;79.41;98484.97;6275008;28;20722;-67
2022/01/27 06:06:56;;;;;;;37.90;20.73;;;;;;;-0.52;79.72;98490.28;6258306;28;20241;-67
2022/01/27 06:09:58;;;;;;;39.20;21.63;;;;;;;-0.50;79.47;98490.25;6258287;28;20323;-67
2022/01/27 06:13:00;;;;;;;43.13;21.57;;;;;;;-0.53;79.70;98480.81;6275047;28;20363;-67
2022/01/27 06:16:08;;;;;;;38.93;21.07;;;;;;;-0.53;79.49;98470.44;6276141;28;20666;-67
2022/01/27 06:19:11;;;;;;;38.27;22.40;;;;;;;-0.40;78.97;98476.19;6274481;28;20231;-67
2022/01/27 06:22:14;;;;;;;38.50;21.50;;;;;;;-0.38;78.54;98479.56;6274935;28;20234;-69
2022/01/27 06:25:16;;;;;;;40.87;22.27;;;;;;;-0.40;78.76;98471.81;6271331;28;20459;-67
2022/01/27 06:28:18;;;;;;;38.37;20.93;;;;;;;-0.43;78.97;98486.63;6276007;28;20237;-67
2022/01/27 06:31:20;;;;;;;38.60;19.43;;;;;;;-0.45;79.04;98485.81;6276098;28;20367;-67
2022/01/27 06:34:22;;;;;;;37.77;19.60;;;;;;;-0.50;78.67;98480.72;6258663;28;20649;-67
2022/01/27 06:37:24;;;;;;;36.30;19.63;;;;;;;-0.38;78.20;98479.56;6276314;28;20226;-66
2022/01/27 06:40:27;;;;;;;36.63;20.57;;;;;;;-0.35;77.51;98471.72;6275314;28;20230;-67
2022/01/27 06:43:28;;;;;;;39.33;19.97;;;;;;;-0.23;77.10;98479.22;6257812;28;20265;-68
2022/01/27 06:46:32;;;;;;;35.80;18.97;;;;;;;-0.19;76.99;98480.81;6277173;28;20258;-67
2022/01/27 06:49:34;;;;;;;34.10;19.20;;;;;;;-0.18;76.82;98486.88;6257757;28;20234;-69
2022/01/27 06:52:36;;;;;;;33.67;19.33;;;;;;;-0.15;76.43;98464.31;6276445;28;20222;-67
2022/01/27 06:55:38;;;;;;;33.90;19.33;;;;;;;-0.14;75.92;98449.59;6276391;28;20237;-67
2022/01/27 06:58:40;;;;;;;40.87;20.07;;;;;;;0.00;75.69;98461.31;6275252;28;20252;-66
2022/01/27 07:01:42;;;;;;;35.67;18.97;;;;;;;0.05;75.09;98457.75;6257805;28;20234;-67
2022/01/27 07:04:45;;;;;;;33.97;18.47;;;;;;;0.07;75.25;98456.84;6275005;28;20233;-66
2022/01/27 07:07:47;;;;;;;33.10;19.30;;;;;;;0.08;74.87;98453.34;6275714;28;20317;-66
2022/01/27 07:10:49;;;;;;;32.57;17.93;;;;;;;0.14;74.49;98442.81;6274084;28;20329;-67
2022/01/27 07:13:51;;;;;;;32.10;18.03;;;;;;;0.24;73.45;98435.63;6274532;28;20233;-67
2022/01/27 07:16:53;;;;;;;33.43;17.97;;;;;;;0.27;73.86;98430.34;6275376;28;20615;-66
2022/01/27 07:19:55;;;;;;;32.27;17.93;;;;;;;0.26;73.54;98426.91;6275116;28;20307;-73
2022/01/27 07:22:57;;;;;;;28.37;16.93;;;;;;;0.32;73.47;98428.47;6275210;28;20783;-67
2022/01/27 07:25:59;;;;;;;30.37;17.23;;;;;;;0.40;73.07;98429.09;6275126;28;20643;-66
2022/01/27 07:29:01;;;;;;;31.27;17.07;;;;;;;0.43;73.02;98425.59;6275361;28;20223;-67
2022/01/27 07:32:03;;;;;;;31.57;17.20;;;;;;;0.56;71.43;98412.22;6274585;28;20610;-66
2022/01/27 07:35:05;;;;;;;29.23;16.90;;;;;;;0.70;71.14;98411.81;6259717;28;20707;-66
2022/01/27 07:38:07;;;;;;;28.40;16.77;;;;;;;0.71;71.34;98409.16;6261826;28;20321;-67
2022/01/27 07:41:12;;;;;;;29.90;16.03;;;;;;;0.74;70.31;98403.88;6278242;28;20241;-66
2022/01/27 07:44:14;;;;;;;24.57;15.30;;;;;;;0.89;69.55;98404.34;6279794;28;20788;-69
2022/01/27 07:47:16;;;;;;;28.00;15.70;;;;;;;1.03;68.76;98395.22;6261727;28;20767;-67
2022/01/27 07:50:18;;;;;;;24.57;14.50;;;;;;;1.12;68.28;98386.28;6277607;28;20712;-67
2022/01/27 07:53:21;;;;;;;28.37;15.00;;;;;;;1.11;68.81;98389.78;6262817;28;20214;-67
2022/01/27 07:56:23;;;;;;;23.13;14.57;;;;;;;1.09;69.02;98386.41;6278326;28;20231;-67
2022/01/27 07:59:25;;;;;;;23.30;14.87;;;;;;;1.06;69.77;98369.13;6279452;28;20603;-66
2022/01/27 08:02:27;;;;;;;26.90;14.10;;;;;;;1.17;68.13;98366.22;6278712;28;20241;-66
2022/01/27 08:05:29;;;;;;;24.97;15.23;;;;;;;1.25;68.24;98365.94;6279282;28;20234;-67
2022/01/27 08:08:32;;;;;;;24.73;13.90;;;;;;;1.28;68.08;98356.31;6279875;28;20233;-66
2022/01/27 08:11:34;;;;;;;22.27;13.90;;;;;;;1.35;68.15;98347.41;6279819;28;20419;-66
2022/01/27 08:14:36;;;;;;;22.40;12.80;;;;;;;1.46;67.51;98334.91;6278364;28;20225;-67
2022/01/27 08:17:38;;;;;;;20.83;12.60;;;;;;;1.59;67.46;98342.31;6261108;28;20238;-66
2022/01/27 08:20:40;;;;;;;21.63;12.47;;;;;;;1.73;66.44;98334.84;6279023;28;20619;-67
2022/01/27 08:23:44;;;;;;;19.87;11.03;;;;;;;1.86;65.08;98325.72;6278837;28;20238;-66
2022/01/27 08:26:48;;;;;;;20.43;10.87;;;;;;;1.97;65.23;98321.00;6277738;28;20230;-67
2022/01/27 08:29:55;;;;;;;16.90;10.90;;;;;;;2.15;64.39;98309.06;6279004;28;20589;-67
2022/01/27 08:33:00;;;;;;;20.60;11.40;;;;;;;2.33;62.94;98325.75;6260182;28;20234;-67
2022/01/27 08:36:04;;;;;;;16.20;9.97;;;;;;;2.47;61.26;98323.50;6277525;28;20268;-66
2022/01/27 08:39:06;;;;;;;15.40;8.77;;;;;;;2.69;60.79;98293.13;6278318;28;20227;-67
2022/01/27 08:42:08;;;;;;;15.83;9.77;;;;;;;2.80;60.76;98295.28;6260751;28;20211;-67
2022/01/27 08:45:12;;;;;;;18.50;10.03;;;;;;;2.99;60.66;98292.81;6277344;28;20246;-67
2022/01/27 08:48:18;;;;;;;12.80;8.73;;;;;;;3.14;59.89;98300.88;6278689;28;20203;-66
2022/01/27 08:51:21;;;;;;;13.37;8.53;;;;;;;3.32;59.55;98294.88;6277578;28;20214;-67
2022/01/27 08:54:25;;;;;;;13.53;8.83;;;;;;;3.58;58.34;98296.44;6277452;28;20311;-67
2022/01/27 08:57:27;;;;;;;12.50;7.87;;;;;;;3.88;57.39;98282.97;6278736;28;20221;-67
2022/01/27 09:00:29;;;;;;;12.47;7.77;;;;;;;4.08;57.18;98264.66;6277032;28;20233;-67
2022/01/27 09:03:31;;;;;;;10.77;7.40;;;;;;;4.16;56.29;98277.38;6272981;28;20226;-67
2022/01/27 09:06:33;;;;;;;13.63;7.70;;;;;;;4.32;55.52;98276.59;6277755;28;20224;-67
2022/01/27 09:09:35;;;;;;;10.03;6.33;;;;;;;4.44;53.89;98278.66;6277730;28;20648;-67
2022/01/27 09:12:37;;;;;;;11.90;7.03;;;;;;;4.62;52.48;98278.69;6277592;28;20233;-67
2022/01/27 09:15:39;;;;;;;10.27;6.40;;;;;;;4.81;53.47;98283.00;6259308;28;20220;-67
2022/01/27 09:18:41;;;;;;;10.97;7.37;;;;;;;4.97;52.77;98275.28;6277690;28;20237;-67
2022/01/27 09:21:45;;;;;;;12.33;6.73;;;;;;;5.28;50.87;98268.53;6277365;28;20404;-67
2022/01/27 09:24:58;;;;;;;11.50;6.80;;;;;;;5.48;50.93;98264.00;6276715;28;20274;-67
2022/01/27 09:28:02;;;;;;;9.53;6.13;;;;;;;5.85;49.90;98272.59;6259781;28;20234;-67
2022/01/27 09:31:04;;;;;;;11.30;6.30;;;;;;;6.15;49.01;98257.91;6258248;28;20242;-67
2022/01/27 09:34:06;;;;;;;7.90;5.57;;;;;;;6.47;47.82;98253.56;6258531;28;20571;-67
2022/01/27 09:37:08;;;;;;;8.40;5.60;;;;;;;7.10;47.65;98252.66;6277263;28;20226;-67
2022/01/27 09:40:11;;;;;;;8.57;5.67;;;;;;;7.36;47.20;98255.50;6276612;28;20219;-66
2022/01/27 09:43:14;;;;;;;8.73;5.80;;;;;;;7.01;46.05;98248.78;6276737;28;20235;-67
2022/01/27 09:46:19;;;;;;;9.07;5.43;;;;;;;6.65;46.69;98260.41;6276350;28;20263;-67
2022/01/27 09:49:30;;;;;;;9.13;5.53;;;;;;;5.99;45.93;98248.34;6275992;28;20637;-66
2022/01/27 09:52:32;;;;;;;7.60;5.17;;;;;;;5.84;47.81;98234.22;6258493;28;20247;-66
2022/01/27 09:55:34;;;;;;;10.13;6.07;;;;;;;5.74;47.44;98223.38;6275976;28;20284;-67
2022/01/27 09:58:40;;;;;;;6.77;4.97;;;;;;;5.61;49.05;98240.66;6276483;28;20335;-67
2022/01/27 10:02:04;;;;;;;8.83;5.30;;;;;;;5.75;47.83;98234.72;6276831;28;20230;-68
2022/01/27 10:05:08;;;;;;;8.43;4.90;;;;;;;6.11;46.94;98222.31;6275740;28;20229;-67
2022/01/27 10:08:19;;;;;;;7.03;4.27;;;;;;;6.40;46.09;98220.72;6276354;28;20227;-67
2022/01/27 10:11:21;;;;;;;5.30;4.13;;;;;;;6.70;45.20;98220.81;6258059;28;20220;-66
2022/01/27 10:14:33;;;;;;;5.53;4.00;;;;;;;6.65;45.22;98220.22;6275486;28;20223;-67
2022/01/27 10:17:38;;;;;;;6.70;3.87;;;;;;;6.66;44.73;98227.16;6275336;28;20312;-67
2022/01/27 10:20:52;;;;;;;5.30;3.80;;;;;;;6.78;44.09;98220.41;6276006;28;20241;-69
2022/01/27 10:23:55;;;;;;;5.40;3.80;;;;;;;6.93;44.21;98222.13;6275929;28;20231;-67
2022/01/27 10:27:35;;;;;;;4.93;3.33;;;;;;;7.19;43.30;98197.00;6257995;28;20559;-67
2022/01/27 10:30:38;;;;;;;4.53;3.33;;;;;;;7.37;42.30;98193.31;6275274;28;20462;-67
2022/01/27 10:33:54;;;;;;;5.07;3.20;;;;;;;7.28;42.25;98202.59;6241553;28;20231;-75
2022/01/27 10:36:56;;;;;;;4.60;3.20;;;;;;;7.47;42.02;98197.09;6274778;28;20712;-69
2022/01/27 10:39:58;;;;;;;5.13;3.10;;;;;;;7.41;43.88;98181.69;6275684;28;20233;-67
2022/01/27 10:43:21;;;;;;;4.77;3.40;;;;;;;7.40;41.97;98185.25;6276711;28;20238;-67
2022/01/27 10:46:27;;;;;;;6.20;3.43;;;;;;;7.61;41.21;98183.97;6275548;28;20236;-67
2022/01/27 10:49:31;;;;;;;5.97;3.37;;;;;;;7.46;41.80;98182.28;6275593;28;20262;-67
2022/01/27 10:55:35;;;;;;;4.13;3.07;;;;;;;6.48;42.43;98189.72;6275489;28;20267;-66
2022/01/27 10:58:42;;;;;;;4.60;3.40;;;;;;;6.44;43.66;98168.97;6276311;28;20233;-67
2022/01/27 11:01:47;;;;;;;5.77;3.93;;;;;;;6.81;42.74;98170.34;6275708;28;20239;-67
2022/01/27 11:04:49;;;;;;;5.50;3.93;;;;;;;6.97;43.18;98168.56;6274741;28;20223;-67
2022/01/27 11:07:52;;;;;;;3.73;2.90;;;;;;;7.08;43.21;98167.94;6275906;28;20238;-66
2022/01/27 11:11:01;;;;;;;5.33;3.43;;;;;;;7.26;40.98;98145.84;6278737;28;20274;-67
2022/01/27 11:14:04;;;;;;;6.27;3.40;;;;;;;7.26;42.70;98157.19;6280158;28;20276;-67
2022/01/27 11:17:10;;;;;;;6.00;3.70;;;;;;;7.23;41.86;98138.16;6262070;28;20232;-66
2022/01/27 11:20:34;;;;;;;3.50;2.67;;;;;;;7.41;40.88;98137.88;6261978;28;20233;-66
2022/01/27 11:26:45;;;;;;;6.60;3.93;;;;;;;7.50;41.10;98125.13;6279654;28;20350;-66
2022/01/27 11:29:56;;;;;;;5.33;3.50;;;;;;;7.32;41.55;98116.59;6280242;28;20222;-66
2022/01/27 11:33:08;;;;;;;5.73;3.90;;;;;;;7.26;40.74;98136.19;6282118;28;20582;-66
2022/01/27 11:36:30;;;;;;;5.50;3.67;;;;;;;7.41;41.29;98127.38;6279136;28;20258;-75
2022/01/27 11:39:56;;;;;;;5.60;3.50;;;;;;;7.56;42.06;98116.91;6279665;28;20241;-66
2022/01/27 11:43:25;;;;;;;4.17;3.17;;;;;;;7.54;41.00;98105.66;6279927;28;20276;-66
2022/01/27 11:46:32;;;;;;;4.57;3.23;;;;;;;7.51;40.37;98092.69;6279597;28;20657;-66
2022/01/27 11:50:00;;;;;;;4.73;3.10;;;;;;;7.77;41.44;98097.19;6280082;28;20225;-72
2022/01/27 11:53:07;;;;;;;5.87;3.27;;;;;;;7.83;40.31;98096.81;6279015;28;20230;-66
2022/01/27 11:56:15;;;;;;;4.13;2.90;;;;;;;7.96;39.52;98086.38;6277203;28;20607;-67
2022/01/27 11:59:37;;;;;;;4.20;2.70;;;;;;;8.07;38.24;98081.28;6275244;28;20618;-67
2022/01/27 12:03:04;;;;;;;4.77;3.17;;;;;;;8.07;36.93;98073.41;6278580;28;20245;-76
2022/01/27 12:06:18;;;;;;;4.73;2.90;;;;;;;8.34;37.37;98081.31;6272875;28;20234;-66
2022/01/27 12:09:20;;;;;;;5.23;3.43;;;;;;;8.22;37.86;98058.41;6278642;28;20237;-66
2022/01/27 12:12:31;;;;;;;4.73;3.43;;;;;;;8.24;37.86;98027.59;6261325;28;20236;-67
2022/01/27 12:15:52;;;;;;;4.40;3.13;;;;;;;8.57;37.62;98035.09;6278858;28;20230;-66
2022/01/27 12:19:12;;;;;;;4.00;3.13;;;;;;;8.52;36.67;98016.97;6278338;28;20239;-67
2022/01/27 12:22:15;;;;;;;3.93;2.67;;;;;;;8.75;36.97;98003.13;6277318;28;20310;-68
2022/01/27 12:25:20;;;;;;;3.23;2.20;;;;;;;8.57;36.84;97993.00;6238595;28;20240;-68
2022/01/27 12:28:22;;;;;;;3.97;2.50;;;;;;;8.64;38.98;97989.84;6278407;28;20614;-67
2022/01/27 12:31:24;;;;;;;3.30;2.60;;;;;;;8.63;36.18;97971.53;6278142;28;20226;-68
2022/01/27 12:34:28;;;;;;;4.23;2.73;;;;;;;8.89;35.83;97976.69;6278167;28;20378;-67
2022/01/27 12:37:34;;;;;;;3.53;2.30;;;;;;;9.13;36.28;97950.47;6278634;28;20604;-67
2022/01/27 12:40:36;;;;;;;3.77;2.20;;;;;;;9.19;35.96;97957.09;6278393;28;20644;-67
2022/01/27 12:43:38;;;;;;;2.60;2.10;;;;;;;9.39;36.92;97964.44;6276959;28;20676;-67
2022/01/27 12:47:20;;;;;;;2.70;1.90;;;;;;;9.48;34.55;97942.69;6278757;28;20609;-69
2022/01/27 12:50:24;;;;;;;2.97;1.87;;;;;;;9.50;34.85;97945.22;6277791;28;20226;-68
2022/01/27 12:53:27;;;;;;;2.20;1.90;;;;;;;9.31;35.58;97929.91;6277267;28;20598;-67
2022/01/27 12:56:29;;;;;;;4.07;2.50;;;;;;;9.53;32.25;97924.78;6260957;28;20214;-67
2022/01/27 12:59:34;;;;;;;2.37;1.90;;;;;;;9.37;34.10;97921.56;6277805;28;20234;-67
2022/01/27 13:02:37;;;;;;;2.83;2.10;;;;;;;9.47;34.81;97930.50;6278120;28;20242;-66
2022/01/27 13:05:49;;;;;;;2.47;2.00;;;;;;;9.85;33.20;97911.91;6277687;28;20234;-67
2022/01/27 13:09:09;;;;;;;3.03;2.00;;;;;;;10.66;31.81;97900.53;6259575;28;20602;-68
2022/01/27 13:12:22;;;;;;;2.77;2.00;;;;;;;11.39;30.71;97886.81;6276196;28;20230;-67
2022/01/27 13:15:30;;;;;;;4.17;2.00;;;;;;;12.22;30.70;97883.53;6260051;28;20642;-66
2022/01/27 13:18:50;;;;;;;3.03;2.13;;;;;;;12.46;29.10;97898.22;6276809;28;20713;-67
2022/01/27 13:22:10;;;;;;;2.93;2.20;;;;;;;12.86;28.47;97881.56;6277511;28;20313;-67
2022/01/27 13:25:16;;;;;;;2.10;1.90;;;;;;;14.17;26.00;97867.22;6266243;28;20285;-67
2022/01/27 13:28:36;;;;;;;1.83;1.53;;;;;;;12.64;27.73;97890.50;6276644;28;20628;-67
2022/01/27 13:31:38;;;;;;;2.80;1.93;;;;;;;10.63;30.16;97898.97;6276597;28;20230;-68
2022/01/27 13:34:43;;;;;;;2.53;1.80;;;;;;;9.62;33.11;97905.66;6276916;28;20607;-67
2022/01/27 13:37:45;;;;;;;4.00;2.00;;;;;;;8.83;34.19;97892.91;6276451;28;20237;-67
2022/01/27 13:44:12;;;;;;;2.40;1.87;;;;;;;7.94;36.27;97910.41;6277870;28;20604;-67
2022/01/27 13:47:14;;;;;;;2.60;2.07;;;;;;;7.69;36.51;97886.66;6275810;28;20236;-67
2022/01/27 13:50:18;;;;;;;3.30;2.27;;;;;;;7.58;37.07;97882.13;6276284;28;20237;-67
2022/01/27 13:53:21;;;;;;;3.90;2.63;;;;;;;7.45;37.04;97873.34;6276380;28;20226;-67
2022/01/27 13:56:23;;;;;;;4.40;2.80;;;;;;;7.36;37.35;97901.03;6276541;28;20557;-67
2022/01/27 13:59:29;;;;;;;3.83;2.87;;;;;;;7.23;37.51;97887.00;6277219;28;20222;-67
2022/01/27 14:02:38;;;;;;;3.37;2.23;;;;;;;7.17;37.39;97897.06;6250299;28;20230;-67
2022/01/27 14:06:01;;;;;;;3.63;2.60;;;;;;;7.11;39.00;97877.28;6251916;28;20696;-73
2022/01/27 14:09:14;;;;;;;4.00;2.53;;;;;;;7.01;38.21;97903.25;6250182;28;20242;-67
2022/01/27 14:12:20;;;;;;;5.57;2.93;;;;;;;6.86;37.92;97878.00;6250382;28;20581;-67
2022/01/27 14:15:39;;;;;;;3.40;2.33;;;;;;;6.70;38.79;97910.47;6251794;28;20221;-68
2022/01/27 14:18:43;;;;;;;3.30;2.60;;;;;;;6.54;41.72;97879.97;6251886;28;20230;-68
2022/01/27 14:21:47;;;;;;;3.80;2.80;;;;;;;6.34;41.54;97869.84;6225446;28;20229;-67
2022/01/27 14:25:16;;;;;;;5.23;3.03;;;;;;;6.37;39.72;97888.00;6250930;28;20236;-67
2022/01/27 14:28:19;;;;;;;2.93;2.40;;;;;;;6.24;41.83;97876.56;6252481;28;20755;-69
2022/01/27 14:31:21;;;;;;;3.20;2.50;;;;;;;6.29;39.33;97880.59;6251582;28;20235;-67
2022/01/27 14:34:36;;;;;;;3.03;2.20;;;;;;;6.18;40.18;97892.66;6251160;28;20267;-67
2022/01/27 14:37:40;;;;;;;2.83;2.00;;;;;;;6.16;39.98;97877.03;6251088;28;20773;-68
2022/01/27 14:40:45;;;;;;;3.80;2.20;;;;;;;6.02;41.32;97886.63;6268203;28;20234;-67
2022/01/27 14:43:49;;;;;;;3.33;2.10;;;;;;;6.01;40.93;97890.16;6248805;28;20231;-67
2022/01/27 14:46:57;;;;;;;3.43;2.13;;;;;;;5.89;42.33;97874.25;6251015;28;20504;-67
2022/01/27 14:50:00;;;;;;;3.63;2.30;;;;;;;5.82;40.97;97865.03;6252243;28;20233;-67
2022/01/27 14:53:02;;;;;;;2.57;1.90;;;;;;;5.77;42.18;97885.41;6249972;28;20773;-67
2022/01/27 14:56:06;;;;;;;3.00;2.33;;;;;;;5.77;41.48;97882.81;6251445;28;20326;-67
2022/01/27 14:59:09;;;;;;;4.00;2.27;;;;;;;5.74;42.29;97888.19;6251478;28;20227;-67
2022/01/27 15:02:10;;;;;;;4.17;2.70;;;;;;;5.53;44.18;97879.81;6256062;28;20260;-67
2022/01/27 15:05:13;;;;;;;3.83;2.30;;;;;;;5.56;43.57;97886.63;6273853;28;20231;-67
2022/01/27 15:08:15;;;;;;;4.63;2.70;;;;;;;5.42;44.01;97887.41;6256872;28;20777;-67